Time;durP1;ratioP1;P1;durP2;ratioP2;P2;SDS_P1;SDS_P2;PMS_P1;PMS_P2;Temp;Humidity;BMP_temperature;BMP_pressure;BME280_temperature;BME280_humidity;BME280_pressure;Samples;Min_cycle;Max_cycle;Signal;HPM_P1;HPM_P2
2023/08/13 00:01:52;;;;;;;9.10;1.92;;;15.30;99.90;;;;;;4941016;29;20461;-84
2023/08/13 00:04:19;;;;;;;7.65;2.00;;;15.40;99.90;;;;;;4925728;29;20234;-84
2023/08/13 00:06:45;;;;;;;6.88;2.53;;;15.40;99.90;;;;;;4925236;29;20069;-84
2023/08/13 00:09:12;;;;;;;9.63;1.80;;;15.40;99.90;;;;;;4925827;29;20039;-84
2023/08/13 00:11:39;;;;;;;10.35;2.15;;;15.40;99.90;;;;;;4956838;29;20065;-85
2023/08/13 00:14:06;;;;;;;12.30;2.22;;;15.40;99.90;;;;;;4926054;29;20078;-84
2023/08/13 00:16:32;;;;;;;12.88;2.28;;;15.40;99.90;;;;;;4925599;29;20102;-84
2023/08/13 00:18:59;;;;;;;9.90;2.20;;;15.40;99.90;;;;;;4925224;29;20058;-84
2023/08/13 00:21:26;;;;;;;6.95;2.20;;;15.40;99.90;;;;;;4925719;29;20130;-84
2023/08/13 00:23:52;;;;;;;5.72;1.88;;;15.40;99.90;;;;;;4925548;29;20046;-84
2023/08/13 00:26:19;;;;;;;8.15;2.17;;;15.40;99.90;;;;;;4925572;29;20039;-84
2023/08/13 00:28:47;;;;;;;10.32;2.28;;;15.40;99.90;;;;;;4925177;29;20036;-84
2023/08/13 00:31:13;;;;;;;7.63;2.53;;;15.40;99.90;;;;;;4957019;29;20087;-85
2023/08/13 00:33:41;;;;;;;8.90;2.20;;;15.40;99.90;;;;;;4940978;29;20075;-84
2023/08/13 00:36:08;;;;;;;11.73;2.75;;;15.40;99.90;;;;;;4940655;29;20122;-84
2023/08/13 00:38:35;;;;;;;7.13;2.08;;;15.30;99.90;;;;;;4940710;29;20135;-84
2023/08/13 00:41:01;;;;;;;9.75;2.40;;;15.30;99.90;;;;;;4924465;29;20523;-85
2023/08/13 00:43:28;;;;;;;7.57;2.10;;;15.20;99.90;;;;;;4940954;29;20050;-84
2023/08/13 00:45:55;;;;;;;11.10;2.40;;;15.20;99.90;;;;;;4924948;29;20039;-84
2023/08/13 00:48:22;;;;;;;10.68;2.45;;;15.20;99.90;;;;;;4940454;29;20098;-84
2023/08/13 00:50:48;;;;;;;5.90;1.98;;;15.10;99.90;;;;;;4924860;29;20125;-84
2023/08/13 00:53:17;;;;;;;11.80;2.50;;;15.10;99.90;;;;;;4956565;29;20039;-84
2023/08/13 00:55:44;;;;;;;8.07;2.30;;;15.10;99.90;;;;;;4925262;29;20085;-84
2023/08/13 00:58:11;;;;;;;12.38;2.60;;;15.20;99.90;;;;;;4924835;29;20130;-84
2023/08/13 01:00:38;;;;;;;7.95;1.95;;;15.20;99.90;;;;;;4956276;29;20043;-84
2023/08/13 01:03:07;;;;;;;8.40;2.30;;;15.20;99.90;;;;;;4955738;29;20039;-84
2023/08/13 01:05:41;;;;;;;8.20;2.28;;;15.20;99.90;;;;;;4940377;29;20507;-83
2023/08/13 01:08:20;;;;;;;11.02;2.60;;;15.20;99.90;;;;;;4948030;29;20039;-84
2023/08/13 01:10:57;;;;;;;8.05;2.50;;;15.20;99.90;;;;;;4955898;28;20094;-84
2023/08/13 01:13:33;;;;;;;11.20;2.60;;;15.20;99.90;;;;;;4936939;29;20424;-84
2023/08/13 01:16:02;;;;;;;8.10;2.20;;;15.20;99.90;;;;;;4936743;29;20138;-84
2023/08/13 01:18:30;;;;;;;8.23;2.47;;;15.20;99.90;;;;;;4921786;29;20058;-84
2023/08/13 01:20:56;;;;;;;6.63;2.15;;;15.20;99.90;;;;;;4936632;29;20520;-84
2023/08/13 01:23:23;;;;;;;7.93;2.35;;;15.20;99.90;;;;;;4936855;29;20134;-84
2023/08/13 01:25:57;;;;;;;15.73;3.90;;;15.20;99.90;;;;;;4936240;29;20048;-84
2023/08/13 01:28:42;;;;;;;9.13;2.60;;;15.20;99.90;;;;;;4936538;29;20457;-84
2023/08/13 01:31:16;;;;;;;11.65;2.60;;;15.20;99.90;;;;;;4936426;29;20130;-84
2023/08/13 01:33:45;;;;;;;9.18;2.50;;;15.20;99.90;;;;;;4952699;29;20056;-84
2023/08/13 01:36:16;;;;;;;7.90;2.70;;;15.20;99.90;;;;;;4936399;29;20043;-84
2023/08/13 01:38:47;;;;;;;8.77;2.55;;;15.20;99.90;;;;;;4921327;29;20051;-84
2023/08/13 01:41:14;;;;;;;10.70;2.30;;;15.20;99.90;;;;;;4920740;29;20040;-84
2023/08/13 01:43:41;;;;;;;9.38;2.40;;;15.20;99.90;;;;;;4936261;29;20044;-84
2023/08/13 01:46:07;;;;;;;11.65;2.38;;;15.20;99.90;;;;;;4935836;29;20043;-84
2023/08/13 01:48:34;;;;;;;8.65;2.35;;;15.20;99.90;;;;;;4921156;29;20074;-84
2023/08/13 01:51:01;;;;;;;10.90;2.58;;;15.10;99.90;;;;;;4920396;29;20046;-84
2023/08/13 01:53:27;;;;;;;8.27;2.45;;;15.20;99.90;;;;;;4936229;29;20044;-84
2023/08/13 01:55:54;;;;;;;10.07;2.30;;;15.20;99.90;;;;;;4920749;29;20044;-84
2023/08/13 01:58:21;;;;;;;14.65;2.55;;;15.20;99.90;;;;;;4936052;29;20054;-84
2023/08/13 02:00:47;;;;;;;11.88;2.58;;;15.20;99.90;;;;;;4936021;29;20495;-84
2023/08/13 02:03:14;;;;;;;8.43;2.50;;;15.20;99.90;;;;;;4920236;29;20401;-84
2023/08/13 02:05:41;;;;;;;6.82;2.13;;;15.20;99.90;;;;;;4920945;29;20051;-84
2023/08/13 02:08:08;;;;;;;8.55;2.53;;;15.20;99.90;;;;;;4920610;29;20489;-84
2023/08/13 02:10:34;;;;;;;10.68;2.63;;;15.20;99.90;;;;;;4920661;29;20036;-84
2023/08/13 02:13:01;;;;;;;14.13;2.78;;;15.20;99.90;;;;;;4937308;29;20189;-84
2023/08/13 02:15:28;;;;;;;10.45;2.58;;;15.20;99.90;;;;;;4943667;29;20054;-84
2023/08/13 02:17:55;;;;;;;11.98;2.95;;;15.20;99.90;;;;;;4927708;29;20043;-84
2023/08/13 02:20:21;;;;;;;14.23;2.35;;;15.20;99.90;;;;;;4974248;29;20047;-84
2023/08/13 02:22:48;;;;;;;9.73;2.58;;;15.20;99.90;;;;;;4927660;29;20496;-84
2023/08/13 02:25:15;;;;;;;13.90;2.33;;;15.20;99.90;;;;;;4943152;29;20447;-84
2023/08/13 02:27:41;;;;;;;7.93;2.38;;;15.20;99.90;;;;;;4958875;29;20039;-84
2023/08/13 02:30:10;;;;;;;9.20;2.35;;;15.20;99.90;;;;;;4958864;29;20471;-84
2023/08/13 02:32:36;;;;;;;10.82;2.30;;;15.20;99.90;;;;;;4958639;29;20075;-84
2023/08/13 02:35:03;;;;;;;10.65;2.55;;;15.20;99.90;;;;;;4927513;29;20504;-84
2023/08/13 02:37:30;;;;;;;9.35;2.45;;;15.20;99.90;;;;;;4958818;29;20039;-84
2023/08/13 02:39:57;;;;;;;9.48;2.85;;;15.20;99.90;;;;;;4943360;29;20043;-84
2023/08/13 02:42:24;;;;;;;8.50;2.33;;;15.20;99.90;;;;;;4927201;29;20079;-84
2023/08/13 02:44:51;;;;;;;11.88;2.30;;;15.20;99.90;;;;;;4927525;29;20090;-84
2023/08/13 02:47:18;;;;;;;11.30;2.55;;;15.20;99.90;;;;;;4926929;29;20126;-84
2023/08/13 02:49:44;;;;;;;11.73;2.72;;;15.20;99.90;;;;;;4943179;29;20047;-84
2023/08/13 02:52:14;;;;;;;14.73;3.10;;;15.20;99.90;;;;;;4928132;29;20058;-84
2023/08/13 02:54:41;;;;;;;11.73;2.63;;;15.20;99.90;;;;;;4927180;29;20078;-84
2023/08/13 02:57:08;;;;;;;10.65;2.92;;;15.20;99.90;;;;;;4958001;29;20043;-84
2023/08/13 02:59:34;;;;;;;10.35;2.58;;;15.20;99.90;;;;;;4958266;29;20125;-84
2023/08/13 03:02:01;;;;;;;7.97;2.35;;;15.20;99.90;;;;;;4942324;29;20039;-84
2023/08/13 03:04:28;;;;;;;10.18;2.63;;;15.20;99.90;;;;;;4942114;29;20042;-85
2023/08/13 03:06:54;;;;;;;15.88;3.20;;;15.20;99.90;;;;;;4958138;29;20040;-84
2023/08/13 03:09:22;;;;;;;13.98;2.67;;;15.20;99.90;;;;;;4926461;29;20045;-84
2023/08/13 03:11:49;;;;;;;9.50;2.55;;;15.10;99.90;;;;;;4926534;29;20101;-84
2023/08/13 03:14:17;;;;;;;9.38;2.60;;;15.10;99.90;;;;;;4957734;29;20080;-84
2023/08/13 03:16:44;;;;;;;15.13;2.88;;;15.10;99.90;;;;;;4958034;29;20047;-84
2023/08/13 03:19:10;;;;;;;11.52;2.47;;;15.10;99.90;;;;;;4957590;29;20431;-84
2023/08/13 03:21:37;;;;;;;10.63;2.40;;;15.10;99.90;;;;;;4957968;29;20039;-84
2023/08/13 03:24:04;;;;;;;9.35;2.25;;;15.00;99.90;;;;;;4926360;28;20097;-84
2023/08/13 03:26:31;;;;;;;14.95;2.65;;;15.00;99.90;;;;;;4941436;29;20543;-84
2023/08/13 03:28:58;;;;;;;14.05;2.53;;;15.00;99.90;;;;;;4942105;29;20126;-85
2023/08/13 03:31:24;;;;;;;8.38;2.38;;;15.00;99.90;;;;;;4926086;29;20047;-84
2023/08/13 03:33:51;;;;;;;10.77;2.80;;;15.00;99.90;;;;;;4957616;29;20097;-85
2023/08/13 03:36:18;;;;;;;11.82;2.30;;;15.00;99.90;;;;;;4926203;29;20046;-84
2023/08/13 03:38:45;;;;;;;9.90;2.78;;;15.00;99.90;;;;;;4941952;29;20095;-84
2023/08/13 03:41:14;;;;;;;10.32;2.45;;;14.90;99.90;;;;;;4957631;29;20503;-85
2023/08/13 03:43:41;;;;;;;13.18;3.28;;;14.90;99.90;;;;;;4926530;29;20036;-84
2023/08/13 03:46:08;;;;;;;10.90;2.53;;;14.90;99.90;;;;;;4926419;29;20043;-84
2023/08/13 03:48:34;;;;;;;9.43;2.55;;;14.90;99.90;;;;;;4941359;29;20090;-85
2023/08/13 03:51:04;;;;;;;17.30;2.65;;;14.90;99.90;;;;;;4941590;29;20069;-84
2023/08/13 03:53:31;;;;;;;14.38;3.35;;;14.90;99.90;;;;;;4956747;29;20050;-85
2023/08/13 03:55:58;;;;;;;11.85;3.05;;;14.90;99.90;;;;;;4941578;29;20708;-84
2023/08/13 03:58:25;;;;;;;9.75;2.83;;;14.90;99.90;;;;;;4941040;29;20043;-84
2023/08/13 04:00:51;;;;;;;9.82;2.95;;;14.90;99.90;;;;;;4941385;29;20051;-84
2023/08/13 04:03:19;;;;;;;11.85;2.80;;;14.90;99.90;;;;;;4925282;29;20035;-84
2023/08/13 04:05:46;;;;;;;10.38;2.92;;;14.90;99.90;;;;;;4926218;29;20494;-84
2023/08/13 04:08:13;;;;;;;9.65;2.90;;;14.90;99.90;;;;;;4925815;29;20046;-84
2023/08/13 04:10:40;;;;;;;12.65;3.10;;;14.90;99.90;;;;;;4925768;29;20134;-84
2023/08/13 04:13:07;;;;;;;15.10;3.03;;;14.90;99.90;;;;;;4925635;29;20055;-84
2023/08/13 04:15:33;;;;;;;9.20;2.80;;;14.90;99.90;;;;;;4956593;29;20067;-84
2023/08/13 04:18:00;;;;;;;15.35;3.03;;;14.90;99.90;;;;;;4925604;29;20109;-85
2023/08/13 04:20:27;;;;;;;12.60;3.13;;;14.90;99.90;;;;;;4925321;29;20429;-84
2023/08/13 04:22:53;;;;;;;12.25;3.03;;;14.70;99.90;;;;;;4925877;29;20039;-84
2023/08/13 04:25:20;;;;;;;13.95;3.55;;;14.80;99.90;;;;;;4941032;29;20115;-84
2023/08/13 04:27:47;;;;;;;16.02;3.50;;;14.90;99.90;;;;;;4940939;29;20050;-84
2023/08/13 04:30:14;;;;;;;10.82;2.80;;;14.80;99.90;;;;;;4956729;29;20051;-84
2023/08/13 04:32:41;;;;;;;16.52;2.80;;;14.80;99.90;;;;;;4972233;29;20039;-84
2023/08/13 04:35:07;;;;;;;11.93;3.20;;;14.80;99.90;;;;;;4956787;29;20035;-85
2023/08/13 04:37:34;;;;;;;10.43;3.00;;;14.80;99.90;;;;;;4955978;29;20130;-84
2023/08/13 04:40:01;;;;;;;11.32;3.03;;;14.80;99.90;;;;;;4956564;29;20476;-84
2023/08/13 04:42:28;;;;;;;12.00;2.60;;;14.90;99.90;;;;;;4940425;29;20094;-84
2023/08/13 04:44:55;;;;;;;15.75;3.30;;;14.90;99.90;;;;;;4972642;29;20050;-85
2023/08/13 04:47:21;;;;;;;9.43;2.90;;;14.90;99.90;;;;;;4956065;29;20039;-84
2023/08/13 04:49:48;;;;;;;11.30;3.00;;;14.90;99.90;;;;;;4941035;29;20103;-84
2023/08/13 04:52:15;;;;;;;9.95;2.67;;;14.90;99.90;;;;;;4955374;28;20086;-84
2023/08/13 04:54:41;;;;;;;8.80;2.85;;;14.90;99.90;;;;;;4941045;29;20767;-83
2023/08/13 04:57:08;;;;;;;9.55;3.08;;;14.90;99.90;;;;;;4924818;29;20087;-83
2023/08/13 04:59:35;;;;;;;11.05;3.50;;;14.90;99.90;;;;;;4924671;29;20043;-83
2023/08/13 05:02:02;;;;;;;16.20;3.42;;;14.90;99.90;;;;;;4924691;29;20047;-83
2023/08/13 05:04:28;;;;;;;11.82;2.80;;;15.00;99.90;;;;;;4924551;29;20031;-83
2023/08/13 05:06:55;;;;;;;12.82;3.28;;;15.00;99.90;;;;;;4924550;29;20046;-83
2023/08/13 05:09:22;;;;;;;11.18;3.10;;;15.00;99.90;;;;;;4924378;29;20050;-83
2023/08/13 05:11:48;;;;;;;11.80;3.17;;;15.10;99.90;;;;;;4973420;28;20057;-83
2023/08/13 05:14:15;;;;;;;10.77;3.08;;;15.10;99.90;;;;;;4975238;28;20109;-82
2023/08/13 05:16:42;;;;;;;13.57;2.75;;;15.20;99.90;;;;;;4959275;28;20047;-83
2023/08/13 05:19:08;;;;;;;8.70;3.05;;;15.20;99.90;;;;;;4959162;28;20054;-83
2023/08/13 05:21:35;;;;;;;10.63;2.95;;;15.20;99.90;;;;;;4943044;28;20035;-83
2023/08/13 05:24:02;;;;;;;11.27;3.10;;;15.20;99.90;;;;;;4943553;28;20065;-83
2023/08/13 05:26:29;;;;;;;10.52;3.10;;;15.30;99.90;;;;;;4958674;28;20046;-82
2023/08/13 05:28:56;;;;;;;13.93;2.97;;;15.30;99.90;;;;;;4943366;28;20492;-82
2023/08/13 05:31:22;;;;;;;9.07;2.80;;;15.40;99.90;;;;;;4943172;28;20161;-83
2023/08/13 05:33:49;;;;;;;13.30;3.05;;;15.40;99.90;;;;;;4943316;28;20035;-83
2023/08/13 05:36:16;;;;;;;7.53;2.67;;;15.50;99.90;;;;;;4958704;28;20061;-83
2023/08/13 05:38:42;;;;;;;13.07;3.35;;;15.60;99.90;;;;;;4958585;28;20042;-84
2023/08/13 05:41:09;;;;;;;10.00;3.35;;;15.60;99.90;;;;;;4943008;28;20415;-84
2023/08/13 05:43:36;;;;;;;11.30;2.90;;;15.60;99.90;;;;;;4942709;28;20113;-83
2023/08/13 05:46:02;;;;;;;9.93;3.25;;;15.70;99.90;;;;;;4959309;28;20041;-83
2023/08/13 05:48:29;;;;;;;10.90;3.20;;;15.80;99.90;;;;;;4957986;28;20070;-83
2023/08/13 05:50:56;;;;;;;10.15;2.92;;;15.90;99.90;;;;;;4942794;28;20043;-83
2023/08/13 05:53:23;;;;;;;12.77;3.63;;;16.00;99.90;;;;;;4958455;28;20083;-83
2023/08/13 05:55:53;;;;;;;16.33;3.25;;;16.10;99.90;;;;;;4958583;28;20086;-84
2023/08/13 05:58:20;;;;;;;10.65;3.03;;;16.20;99.90;;;;;;4943057;28;20038;-84
2023/08/13 06:00:46;;;;;;;11.02;3.33;;;16.30;99.90;;;;;;4958171;28;20106;-84
2023/08/13 06:03:14;;;;;;;11.40;2.90;;;16.40;99.90;;;;;;4942540;28;20097;-84
2023/08/13 06:05:41;;;;;;;13.35;2.90;;;16.50;99.90;;;;;;4942714;28;20055;-84
2023/08/13 06:08:08;;;;;;;11.40;3.22;;;16.60;99.90;;;;;;4942552;28;20074;-84
2023/08/13 06:10:35;;;;;;;11.93;2.78;;;16.70;99.90;;;;;;4942794;28;20043;-84
2023/08/13 06:13:01;;;;;;;14.27;3.80;;;16.70;99.90;;;;;;4958249;28;20067;-84
2023/08/13 06:15:29;;;;;;;16.08;3.28;;;16.70;99.90;;;;;;4957688;28;20054;-84
2023/08/13 06:17:56;;;;;;;10.15;3.30;;;16.80;99.90;;;;;;4942823;28;20039;-85
2023/08/13 06:20:23;;;;;;;11.15;3.20;;;16.70;99.90;;;;;;4942143;29;20035;-84
2023/08/13 06:22:50;;;;;;;8.82;2.72;;;16.80;99.90;;;;;;4938800;29;20416;-84
2023/08/13 06:25:17;;;;;;;17.90;3.40;;;16.80;99.90;;;;;;4939476;29;20046;-84
2023/08/13 06:27:44;;;;;;;9.93;3.08;;;16.80;99.90;;;;;;4938733;29;20105;-84
2023/08/13 06:30:11;;;;;;;9.70;2.63;;;16.80;99.90;;;;;;4955150;29;20050;-84
2023/08/13 06:32:37;;;;;;;11.05;3.10;;;16.70;99.90;;;;;;4922989;29;20827;-84
2023/08/13 06:35:04;;;;;;;12.05;3.25;;;16.70;99.90;;;;;;4954830;29;20046;-84
2023/08/13 06:37:31;;;;;;;13.15;2.97;;;16.70;99.90;;;;;;4938732;29;20039;-85
2023/08/13 06:39:58;;;;;;;12.73;3.13;;;16.70;99.90;;;;;;4954882;29;20035;-84
2023/08/13 06:42:25;;;;;;;10.98;3.20;;;16.70;99.90;;;;;;4938924;29;20062;-84
2023/08/13 06:44:52;;;;;;;19.92;3.40;;;16.80;99.90;;;;;;4957106;29;20031;-84
2023/08/13 06:47:18;;;;;;;11.27;3.40;;;16.90;99.90;;;;;;4939190;29;20039;-84
2023/08/13 06:49:45;;;;;;;13.02;3.45;;;17.00;99.90;;;;;;4945182;29;20443;-84
2023/08/13 06:52:12;;;;;;;10.02;3.30;;;17.10;99.90;;;;;;4923448;29;20084;-85
2023/08/13 06:54:39;;;;;;;13.02;3.13;;;17.10;99.90;;;;;;4939143;29;20138;-86
2023/08/13 06:57:05;;;;;;;8.77;2.70;;;17.10;99.90;;;;;;4954710;29;20091;-84
2023/08/13 06:59:32;;;;;;;12.77;3.13;;;17.10;99.90;;;;;;4940487;29;20512;-84
2023/08/13 07:01:59;;;;;;;14.95;3.20;;;17.20;99.90;;;;;;4958285;29;20053;-86
2023/08/13 07:04:25;;;;;;;9.70;3.22;;;17.30;99.90;;;;;;4948197;28;20046;-84
2023/08/13 07:06:52;;;;;;;12.45;3.50;;;17.40;99.90;;;;;;4926210;29;20377;-84
2023/08/13 07:09:19;;;;;;;9.18;2.78;;;17.50;99.90;;;;;;4926717;29;20046;-84
2023/08/13 07:11:46;;;;;;;9.85;2.67;;;17.60;99.90;;;;;;4925801;29;20500;-83
2023/08/13 07:14:12;;;;;;;9.52;2.90;;;17.70;99.90;;;;;;4942060;29;20116;-85
2023/08/13 07:16:39;;;;;;;12.23;2.97;;;17.80;99.90;;;;;;4926382;29;20437;-84
2023/08/13 07:19:07;;;;;;;9.73;2.92;;;17.70;99.90;;;;;;4958019;29;20043;-84
2023/08/13 07:21:33;;;;;;;8.77;3.13;;;17.70;99.90;;;;;;4926338;29;20043;-84
2023/08/13 07:24:00;;;;;;;10.77;2.88;;;17.70;99.90;;;;;;4942455;29;20373;-86
2023/08/13 07:26:27;;;;;;;10.30;2.88;;;17.70;99.90;;;;;;4926479;29;20086;-83
2023/08/13 07:28:53;;;;;;;11.02;3.30;;;17.80;99.90;;;;;;4926056;29;20058;-85
2023/08/13 07:31:20;;;;;;;10.55;2.60;;;17.80;99.90;;;;;;4926076;29;20050;-85
2023/08/13 07:33:47;;;;;;;8.55;2.65;;;17.90;99.90;;;;;;4941520;29;20183;-85
2023/08/13 07:40:07;;;;;;;11.68;3.13;;;18.00;99.90;;;;;;4963759;29;20075;-84
2023/08/13 07:42:34;;;;;;;16.02;3.58;;;18.20;99.90;;;;;;4941997;29;20415;-84
2023/08/13 07:45:07;;;;;;;11.70;3.20;;;18.20;99.90;;;;;;4957164;29;20046;-83
2023/08/13 07:47:38;;;;;;;13.02;2.97;;;18.30;99.90;;;;;;4942197;29;20134;-84
2023/08/13 07:50:07;;;;;;;15.02;3.22;;;18.40;99.90;;;;;;4941740;29;20039;-83
2023/08/13 07:52:36;;;;;;;12.70;3.17;;;18.40;99.90;;;;;;4941750;29;20098;-84
2023/08/13 07:55:05;;;;;;;12.55;3.08;;;18.40;99.90;;;;;;4957294;29;20418;-83
2023/08/13 07:57:32;;;;;;;13.77;2.85;;;18.50;99.90;;;;;;4957263;29;20079;-84
2023/08/13 07:59:58;;;;;;;10.75;3.08;;;18.60;99.90;;;;;;4956531;29;20046;-84
2023/08/13 08:02:25;;;;;;;10.00;2.65;;;18.70;99.90;;;;;;4941134;29;20054;-84
2023/08/13 08:04:52;;;;;;;10.35;3.15;;;18.80;99.90;;;;;;4925478;29;20039;-82
2023/08/13 08:07:19;;;;;;;10.43;2.55;;;19.00;99.90;;;;;;4957217;29;20061;-82
2023/08/13 08:09:45;;;;;;;8.10;2.40;;;19.10;99.90;;;;;;4956504;29;20047;-83
2023/08/13 08:12:12;;;;;;;10.52;2.65;;;19.30;99.90;;;;;;4924867;29;20063;-82
2023/08/13 08:14:39;;;;;;;11.82;2.50;;;19.30;99.90;;;;;;4956612;29;20105;-82
2023/08/13 08:17:07;;;;;;;10.50;2.72;;;19.50;99.90;;;;;;4941340;29;20197;-82
2023/08/13 08:19:33;;;;;;;8.90;2.70;;;19.60;99.90;;;;;;4925731;29;20054;-83
2023/08/13 08:22:00;;;;;;;11.05;2.38;;;19.70;99.90;;;;;;4955915;29;20089;-85
2023/08/13 08:24:27;;;;;;;8.15;2.20;;;19.60;99.90;;;;;;4956651;29;20187;-85
2023/08/13 08:26:54;;;;;;;7.95;2.38;;;19.80;99.90;;;;;;4956062;29;20057;-84
2023/08/13 08:29:20;;;;;;;10.18;2.30;;;19.90;99.90;;;;;;4945090;29;20130;-85
2023/08/13 08:31:47;;;;;;;9.95;2.03;;;20.00;99.90;;;;;;4940677;29;20054;-85
2023/08/13 08:34:14;;;;;;;7.82;2.30;;;20.10;99.90;;;;;;4940365;29;20078;-85
2023/08/13 08:36:41;;;;;;;6.90;2.00;;;20.20;99.90;;;;;;4940772;29;20952;-84
2023/08/13 08:39:08;;;;;;;11.15;3.10;;;20.30;99.90;;;;;;4925094;29;20043;-84
2023/08/13 08:41:38;;;;;;;7.15;2.08;;;20.40;99.90;;;;;;4940758;29;20052;-86
2023/08/13 08:44:07;;;;;;;8.68;1.95;;;20.50;99.90;;;;;;4955760;29;20039;-86
2023/08/13 08:46:36;;;;;;;8.15;2.47;;;20.50;99.90;;;;;;4940654;29;20039;-85
2023/08/13 08:49:03;;;;;;;4.90;1.80;;;20.70;99.90;;;;;;4955774;29;20046;-84
2023/08/13 08:51:31;;;;;;;8.23;2.05;;;20.70;99.90;;;;;;4940198;29;20455;-84
2023/08/13 08:53:59;;;;;;;9.23;2.47;;;20.90;99.90;;;;;;4940138;29;20058;-84
2023/08/13 08:56:26;;;;;;;9.52;2.40;;;20.90;99.90;;;;;;4956293;29;20085;-85
2023/08/13 08:58:52;;;;;;;11.30;1.98;;;20.80;99.90;;;;;;4955786;29;20095;-85
2023/08/13 09:01:19;;;;;;;5.90;1.90;;;20.80;99.90;;;;;;4985010;29;20043;-84
2023/08/13 09:03:46;;;;;;;7.78;2.25;;;20.80;99.90;;;;;;4955239;29;20078;-85
2023/08/13 09:06:13;;;;;;;8.05;2.42;;;21.00;99.90;;;;;;4955606;29;20740;-85
2023/08/13 09:08:40;;;;;;;7.32;2.03;;;21.00;99.90;;;;;;4940185;29;20057;-85
2023/08/13 09:11:08;;;;;;;9.00;2.35;;;20.90;99.90;;;;;;4939234;29;20043;-84
2023/08/13 09:13:35;;;;;;;5.32;1.60;;;21.10;99.90;;;;;;4924492;29;20138;-84
2023/08/13 09:16:02;;;;;;;6.22;1.98;;;21.20;99.90;;;;;;4955385;29;20130;-86
2023/08/13 09:18:38;;;;;;;9.07;1.83;;;21.20;99.90;;;;;;4955217;29;20043;-85
2023/08/13 09:21:05;;;;;;;5.88;1.67;;;21.20;99.90;;;;;;4939573;29;20051;-86
2023/08/13 09:23:32;;;;;;;10.23;1.92;;;21.20;99.90;;;;;;4954742;29;20686;-86
2023/08/13 09:25:58;;;;;;;5.97;1.70;;;21.40;99.90;;;;;;4939438;29;20047;-85
2023/08/13 09:28:25;;;;;;;7.05;2.05;;;21.50;99.90;;;;;;4957922;28;20531;-86
2023/08/13 09:30:52;;;;;;;5.50;1.58;;;21.60;99.90;;;;;;4958513;28;20054;-85
2023/08/13 09:33:18;;;;;;;9.52;2.00;;;21.60;99.90;;;;;;4958511;28;20043;-86
2023/08/13 09:35:45;;;;;;;8.02;1.85;;;21.70;99.90;;;;;;4927461;29;20098;-86
2023/08/13 09:38:12;;;;;;;7.13;1.90;;;21.80;99.90;;;;;;4922936;29;20714;-86
2023/08/13 09:40:39;;;;;;;6.03;1.58;;;21.60;99.90;;;;;;4923992;29;20500;-85
2023/08/13 09:43:06;;;;;;;5.97;1.83;;;21.60;99.90;;;;;;4955059;29;20448;-85
2023/08/13 09:45:34;;;;;;;4.35;1.42;;;21.50;99.90;;;;;;4955180;29;20832;-85
2023/08/13 09:48:06;;;;;;;7.22;1.58;;;21.50;99.90;;;;;;4954890;29;20042;-85
2023/08/13 09:50:36;;;;;;;8.60;1.98;;;21.80;99.90;;;;;;4971342;29;20067;-85
2023/08/13 09:53:07;;;;;;;8.05;1.85;;;22.10;99.90;;;;;;4936082;29;20043;-86
2023/08/13 09:55:40;;;;;;;6.57;1.55;;;22.20;99.90;;;;;;4936116;29;20073;-85
2023/08/13 09:58:10;;;;;;;7.13;1.83;;;22.10;99.90;;;;;;4935459;29;20062;-85
2023/08/13 10:00:37;;;;;;;8.57;1.67;;;22.10;99.90;;;;;;4935942;29;20130;-83
2023/08/13 10:03:04;;;;;;;5.05;1.50;;;22.00;99.90;;;;;;4935811;29;20171;-85
2023/08/13 10:05:32;;;;;;;7.72;2.25;;;21.90;99.90;;;;;;4920347;29;20043;-86
2023/08/13 10:07:59;;;;;;;6.10;1.65;;;21.90;99.90;;;;;;4951318;29;20449;-84
2023/08/13 10:10:29;;;;;;;6.68;1.75;;;22.00;99.90;;;;;;4937776;29;20050;-85
2023/08/13 10:12:56;;;;;;;5.57;1.75;;;21.90;99.90;;;;;;4954378;29;20055;-85
2023/08/13 10:15:23;;;;;;;5.07;1.67;;;21.70;99.90;;;;;;4939654;29;20050;-86
2023/08/13 10:17:51;;;;;;;5.95;1.80;;;21.60;99.90;;;;;;4923994;29;20563;-86
2023/08/13 10:20:18;;;;;;;10.82;1.88;;;21.80;99.90;;;;;;4954903;29;20098;-87
2023/08/13 10:22:46;;;;;;;6.38;2.00;;;22.00;99.90;;;;;;4955831;29;20075;-87
2023/08/13 10:25:37;;;;;;;9.45;2.03;;;22.10;99.90;;;;;;4986606;29;20649;-90
2023/08/13 10:28:27;;;;;;;7.85;1.50;;;22.20;99.90;;;;;;4992899;28;20043;-90
2023/08/13 10:31:30;;;;;;;7.18;1.50;;;22.30;99.90;;;;;;4962942;29;20046;-89
2023/08/13 10:34:40;;;;;;;6.90;1.75;;;22.20;99.90;;;;;;4861536;29;20042;-90
2023/08/13 10:37:19;;;;;;;5.53;1.75;;;22.30;99.90;;;;;;4957425;29;20424;-90
2023/08/13 10:40:08;;;;;;;3.92;1.48;;;22.20;99.90;;;;;;4939154;29;20122;-90
2023/08/13 10:42:36;;;;;;;5.05;1.40;;;22.20;99.90;;;;;;4943395;29;20039;-90
2023/08/13 10:45:06;;;;;;;4.47;1.50;;;22.30;99.90;;;;;;4940372;29;20610;-92
2023/08/13 10:47:51;;;;;;;6.57;1.70;;;22.30;99.90;;;;;;4924986;29;20048;-90
2023/08/13 10:50:29;;;;;;;5.60;1.75;;;22.10;99.90;;;;;;4939916;29;20106;-89
2023/08/13 10:53:20;;;;;;;6.40;1.45;;;21.90;99.90;;;;;;4939681;29;20548;-88
2023/08/13 10:55:50;;;;;;;5.90;1.50;;;21.80;99.90;;;;;;4940207;29;20036;-91
2023/08/13 10:58:28;;;;;;;4.38;1.30;;;21.70;99.90;;;;;;4939977;29;20043;-89
2023/08/13 11:01:16;;;;;;;4.65;1.50;;;21.60;99.90;;;;;;4940046;29;20071;-91
2023/08/13 11:04:03;;;;;;;6.30;1.35;;;21.60;99.90;;;;;;4939835;29;20047;-90
2023/08/13 11:06:32;;;;;;;6.72;1.38;;;21.60;99.90;;;;;;4955695;29;20183;-87
2023/08/13 11:08:59;;;;;;;4.20;1.45;;;21.50;99.90;;;;;;4923166;29;20130;-85
2023/08/13 11:11:29;;;;;;;7.13;1.50;;;21.50;99.90;;;;;;4930946;29;20105;-85
2023/08/13 11:13:56;;;;;;;5.15;1.33;;;21.70;99.90;;;;;;4957657;29;20055;-85
2023/08/13 11:16:27;;;;;;;5.20;1.30;;;22.10;99.90;;;;;;4957359;29;20189;-85
2023/08/13 11:18:54;;;;;;;5.13;1.30;;;22.30;99.90;;;;;;4957941;29;20126;-85
2023/08/13 11:21:24;;;;;;;5.40;1.30;;;22.10;99.90;;;;;;4962648;29;20050;-85
2023/08/13 11:23:52;;;;;;;4.55;1.38;;;22.10;99.90;;;;;;4941551;29;20045;-85
2023/08/13 11:26:18;;;;;;;6.38;1.40;;;21.90;99.90;;;;;;4957219;29;20130;-84
2023/08/13 11:28:45;;;;;;;4.65;1.25;;;21.90;99.90;;;;;;4957646;29;20178;-84
2023/08/13 11:31:12;;;;;;;4.93;1.38;;;21.80;99.90;;;;;;4942196;29;20055;-85
2023/08/13 11:33:39;;;;;;;5.25;1.45;;;21.90;99.90;;;;;;4941807;29;20047;-85
2023/08/13 11:36:06;;;;;;;4.75;1.40;;;21.90;99.90;;;;;;4957303;29;20051;-85
2023/08/13 11:38:32;;;;;;;4.32;1.20;;;21.90;99.90;;;;;;4926309;29;20043;-85
2023/08/13 11:40:59;;;;;;;4.07;1.23;;;22.00;99.90;;;;;;4957410;29;20098;-85
2023/08/13 11:43:29;;;;;;;6.05;1.58;;;22.10;99.90;;;;;;4941056;29;20127;-84
2023/08/13 11:45:55;;;;;;;6.03;1.80;;;22.10;99.90;;;;;;4956722;29;20031;-85
2023/08/13 11:48:22;;;;;;;5.47;1.45;;;22.10;99.90;;;;;;4957336;29;20098;-85
2023/08/13 11:50:55;;;;;;;3.78;1.00;;;22.20;99.90;;;;;;4941854;29;20047;-84
2023/08/13 11:53:22;;;;;;;6.13;1.60;;;22.20;99.90;;;;;;4956627;29;20102;-84
2023/08/13 11:55:49;;;;;;;5.75;1.42;;;22.20;99.90;;;;;;4956851;29;20475;-85
2023/08/13 11:58:18;;;;;;;4.28;1.42;;;22.30;99.90;;;;;;4941035;29;20882;-85
2023/08/13 12:00:47;;;;;;;5.55;1.27;;;22.30;99.90;;;;;;4940924;29;20050;-85
2023/08/13 12:03:14;;;;;;;3.92;1.13;;;22.40;99.90;;;;;;4956532;28;20050;-84
2023/08/13 12:05:42;;;;;;;3.97;1.20;;;22.40;99.90;;;;;;4941681;29;20095;-85
2023/08/13 12:08:09;;;;;;;3.78;1.20;;;22.40;99.90;;;;;;4925764;29;20403;-85
2023/08/13 12:10:38;;;;;;;4.03;1.13;;;22.40;99.90;;;;;;4957041;29;20036;-85
2023/08/13 12:13:05;;;;;;;5.85;1.42;;;22.50;99.90;;;;;;4972411;29;20415;-88
2023/08/13 12:15:32;;;;;;;3.28;1.10;;;22.50;99.90;;;;;;4940539;28;20047;-83
2023/08/13 12:17:59;;;;;;;4.05;1.08;;;22.60;99.90;;;;;;4958182;29;20039;-83
2023/08/13 12:20:27;;;;;;;4.20;1.42;;;22.60;99.90;;;;;;4956250;29;20553;-83
2023/08/13 12:22:54;;;;;;;6.32;1.27;;;22.60;99.90;;;;;;4956878;29;20070;-83
2023/08/13 12:25:21;;;;;;;6.40;1.20;;;22.40;99.90;;;;;;4940631;29;20051;-83
2023/08/13 12:27:51;;;;;;;3.42;0.90;;;22.40;99.90;;;;;;4925822;29;20042;-83
2023/08/13 12:30:18;;;;;;;4.10;1.45;;;22.20;99.90;;;;;;4940746;29;20147;-85
2023/08/13 12:32:44;;;;;;;4.95;1.00;;;22.20;99.90;;;;;;4956225;29;20126;-83
2023/08/13 12:35:14;;;;;;;4.85;1.20;;;22.10;99.90;;;;;;4926042;29;20043;-83
2023/08/13 12:37:41;;;;;;;3.38;0.90;;;22.10;99.90;;;;;;4956209;29;20047;-85
2023/08/13 12:40:11;;;;;;;5.40;1.23;;;22.10;99.90;;;;;;4940915;29;20872;-85
2023/08/13 12:42:38;;;;;;;4.43;0.90;;;22.10;99.90;;;;;;4955882;29;20050;-85
2023/08/13 12:45:06;;;;;;;3.25;0.98;;;22.20;99.90;;;;;;4924842;29;20039;-85
2023/08/13 12:47:37;;;;;;;4.20;1.20;;;22.20;99.90;;;;;;4971852;29;20043;-85
2023/08/13 12:50:06;;;;;;;2.38;0.90;;;22.40;99.90;;;;;;4972385;29;20046;-85
2023/08/13 12:52:33;;;;;;;4.78;1.05;;;22.40;99.90;;;;;;4955798;29;20478;-85